FDX5062 KBOI-KOKC
Flight info
| Callsign | FDX5062 |
|---|---|
| Flight time | N/A |
| Altitude | 37000 |
| Route | ROARR CAMET CAMET3 |
| Aircraft | B738/M-SDE2E3FGHIRWXY/LB1 |
Departure
| Time | 2026-05-07 01:05 |
|---|---|
| Airport | Boise Air Terminal/Gowen Field (KBOI) |
Arrival
| Time | N/A |
|---|---|
| Airport | OKC Will Rogers World Airport (KOKC) |
| Time | Latitude | Longitude | Altitude | Speed | Heading |
|---|---|---|---|---|---|
| 2026-05-07 00:26 | 43.56681 | -116.21687 | 2880 ft | 0 kts | 204° |
| 2026-05-07 00:55 | 43.56696 | -116.21678 | 2880 ft | 4 kts | 201° |
| 2026-05-07 00:55 | 43.56721 | -116.21666 | 2880 ft | 4 kts | 200° |
| 2026-05-07 00:55 | 43.56744 | -116.21650 | 2880 ft | 4 kts | 228° |
| 2026-05-07 00:56 | 43.56750 | -116.21634 | 2880 ft | 1 kts | 295° |
| 2026-05-07 00:56 | 43.56749 | -116.21629 | 2880 ft | 0 kts | 295° |
| 2026-05-07 00:58 | 43.56760 | -116.21664 | 2880 ft | 7 kts | 294° |
| 2026-05-07 00:58 | 43.56752 | -116.21743 | 2880 ft | 11 kts | 220° |
| 2026-05-07 00:58 | 43.56666 | -116.21755 | 2880 ft | 13 kts | 174° |
| 2026-05-07 00:58 | 43.56578 | -116.21756 | 2880 ft | 13 kts | 220° |
| 2026-05-07 00:59 | 43.56627 | -116.21978 | 2880 ft | 12 kts | 294° |
| 2026-05-07 00:59 | 43.56615 | -116.22085 | 2880 ft | 12 kts | 243° |
| 2026-05-07 00:59 | 43.56629 | -116.22197 | 2880 ft | 13 kts | 293° |
| 2026-05-07 01:00 | 43.56677 | -116.22338 | 2880 ft | 18 kts | 295° |
| 2026-05-07 01:00 | 43.56729 | -116.22490 | 2880 ft | 17 kts | 295° |
| 2026-05-07 01:00 | 43.56779 | -116.22639 | 2880 ft | 17 kts | 295° |
| 2026-05-07 01:00 | 43.56829 | -116.22781 | 2880 ft | 16 kts | 295° |
| 2026-05-07 01:01 | 43.56876 | -116.22919 | 2880 ft | 16 kts | 296° |
| 2026-05-07 01:01 | 43.56926 | -116.23062 | 2880 ft | 18 kts | 295° |
| 2026-05-07 01:01 | 43.56979 | -116.23222 | 2880 ft | 18 kts | 295° |
| 2026-05-07 01:01 | 43.57032 | -116.23376 | 2880 ft | 18 kts | 295° |
| 2026-05-07 01:02 | 43.57083 | -116.23528 | 2881 ft | 17 kts | 294° |
| 2026-05-07 01:02 | 43.57111 | -116.23682 | 2881 ft | 17 kts | 266° |
| 2026-05-07 01:02 | 43.57096 | -116.23837 | 2881 ft | 16 kts | 263° |
| 2026-05-07 01:02 | 43.57078 | -116.23984 | 2881 ft | 15 kts | 254° |
| 2026-05-07 01:03 | 43.57048 | -116.24120 | 2881 ft | 14 kts | 253° |
| 2026-05-07 01:03 | 43.56981 | -116.24179 | 2881 ft | 14 kts | 140° |
| 2026-05-07 01:03 | 43.56945 | -116.24061 | 2883 ft | 13 kts | 115° |
| 2026-05-07 01:03 | 43.56907 | -116.23947 | 2883 ft | 13 kts | 114° |
| 2026-05-07 01:04 | 43.56869 | -116.23838 | 2883 ft | 13 kts | 116° |
| 2026-05-07 01:04 | 43.56722 | -116.23420 | 2881 ft | 88 kts | 115° |
| 2026-05-07 01:04 | 43.56363 | -116.22373 | 2880 ft | 155 kts | 115° |
| 2026-05-07 01:04 | 43.55841 | -116.20822 | 3181 ft | 190 kts | 114° |
| 2026-05-07 01:05 | 43.55282 | -116.19191 | 4223 ft | 185 kts | 113° |
| 2026-05-07 01:05 | 43.54730 | -116.17540 | 5034 ft | 197 kts | 112° |
| 2026-05-07 01:05 | 43.54158 | -116.15687 | 5303 ft | 223 kts | 113° |
| 2026-05-07 01:05 | 43.53528 | -116.13610 | 5495 ft | 246 kts | 114° |
| 2026-05-07 01:06 | 43.52841 | -116.11365 | 5783 ft | 262 kts | 114° |
| 2026-05-07 01:06 | 43.52122 | -116.09026 | 6274 ft | 268 kts | 113° |
| 2026-05-07 01:06 | 43.51388 | -116.06651 | 6833 ft | 271 kts | 113° |
| 2026-05-07 01:06 | 43.50651 | -116.04294 | 7411 ft | 273 kts | 114° |
| 2026-05-07 01:07 | 43.49893 | -116.01885 | 7983 ft | 276 kts | 114° |
| 2026-05-07 01:07 | 43.49129 | -115.99444 | 8493 ft | 279 kts | 114° |
| 2026-05-07 01:07 | 43.48362 | -115.96993 | 9071 ft | 278 kts | 114° |
| 2026-05-07 01:07 | 43.47587 | -115.94528 | 9556 ft | 284 kts | 114° |
| 2026-05-07 01:08 | 43.46795 | -115.92016 | 10113 ft | 287 kts | 113° |
| 2026-05-07 01:08 | 43.45994 | -115.89484 | 10746 ft | 292 kts | 113° |
| 2026-05-07 01:08 | 43.45149 | -115.86811 | 10960 ft | 316 kts | 113° |
| 2026-05-07 01:08 | 43.44240 | -115.83935 | 11171 ft | 340 kts | 113° |
| 2026-05-07 01:09 | 43.43272 | -115.80880 | 11591 ft | 354 kts | 113° |
| 2026-05-07 01:09 | 43.42290 | -115.77789 | 12239 ft | 360 kts | 113° |
| 2026-05-07 01:09 | 43.41282 | -115.74619 | 12988 ft | 363 kts | 113° |
| 2026-05-07 01:09 | 43.40265 | -115.71420 | 13670 ft | 368 kts | 112° |
| 2026-05-07 01:10 | 43.39230 | -115.68172 | 14318 ft | 373 kts | 112° |
| 2026-05-07 01:10 | 43.38180 | -115.64885 | 15001 ft | 376 kts | 112° |
| 2026-05-07 01:10 | 43.37119 | -115.61576 | 15654 ft | 381 kts | 111° |
| 2026-05-07 01:10 | 43.36044 | -115.58213 | 16227 ft | 387 kts | 111° |
| 2026-05-07 01:11 | 43.34955 | -115.54804 | 16857 ft | 392 kts | 111° |
| 2026-05-07 01:11 | 43.33875 | -115.51418 | 17532 ft | 394 kts | 111° |
| 2026-05-07 01:11 | 43.32759 | -115.47948 | 18055 ft | 400 kts | 111° |
| 2026-05-07 01:11 | 43.31665 | -115.44554 | 18636 ft | 403 kts | 111° |
| 2026-05-07 01:12 | 43.30527 | -115.41017 | 19257 ft | 406 kts | 110° |
| 2026-05-07 01:12 | 43.29379 | -115.37455 | 19812 ft | 410 kts | 110° |
| 2026-05-07 01:12 | 43.28212 | -115.33866 | 20362 ft | 414 kts | 111° |
| 2026-05-07 01:12 | 43.27022 | -115.30253 | 20903 ft | 418 kts | 111° |
| 2026-05-07 01:13 | 43.25812 | -115.26603 | 21405 ft | 422 kts | 111° |
| 2026-05-07 01:13 | 43.24608 | -115.22980 | 21903 ft | 425 kts | 111° |
| 2026-05-07 01:13 | 43.23377 | -115.19279 | 22448 ft | 427 kts | 111° |
| 2026-05-07 01:13 | 43.22140 | -115.15560 | 22907 ft | 431 kts | 111° |
| 2026-05-07 01:14 | 43.20891 | -115.11807 | 23341 ft | 435 kts | 111° |
| 2026-05-07 01:14 | 43.19634 | -115.08033 | 23816 ft | 437 kts | 111° |
| 2026-05-07 01:14 | 43.18366 | -115.04229 | 24249 ft | 440 kts | 111° |
| 2026-05-07 01:14 | 43.17090 | -115.00406 | 24669 ft | 443 kts | 111° |
| 2026-05-07 01:15 | 43.15801 | -114.96547 | 25063 ft | 447 kts | 111° |
| 2026-05-07 01:15 | 43.14520 | -114.92721 | 25477 ft | 450 kts | 111° |
| 2026-05-07 01:15 | 43.13210 | -114.88814 | 25884 ft | 452 kts | 111° |
| 2026-05-07 01:15 | 43.11894 | -114.84893 | 26264 ft | 455 kts | 111° |
| 2026-05-07 01:16 | 43.10568 | -114.80950 | 26642 ft | 457 kts | 111° |
| 2026-05-07 01:16 | 43.09232 | -114.76980 | 26985 ft | 461 kts | 111° |
| 2026-05-07 01:16 | 43.07887 | -114.72986 | 27318 ft | 464 kts | 111° |
| 2026-05-07 01:16 | 43.06529 | -114.68963 | 27678 ft | 466 kts | 111° |
| 2026-05-07 01:17 | 43.05167 | -114.64936 | 28030 ft | 469 kts | 111° |
| 2026-05-07 01:17 | 43.03811 | -114.60933 | 28349 ft | 471 kts | 111° |
| 2026-05-07 01:17 | 43.02432 | -114.56865 | 28667 ft | 474 kts | 111° |
| 2026-05-07 01:17 | 43.01041 | -114.52770 | 28986 ft | 476 kts | 111° |
| 2026-05-07 01:18 | 42.99643 | -114.48660 | 29278 ft | 478 kts | 111° |
| 2026-05-07 01:18 | 42.98235 | -114.44526 | 29554 ft | 481 kts | 111° |
| 2026-05-07 01:18 | 42.96820 | -114.40377 | 29858 ft | 483 kts | 111° |
| 2026-05-07 01:18 | 42.95399 | -114.36219 | 30135 ft | 485 kts | 111° |
| 2026-05-07 01:19 | 42.93966 | -114.32031 | 30400 ft | 487 kts | 111° |
| 2026-05-07 01:19 | 42.92528 | -114.27837 | 30684 ft | 489 kts | 111° |
| 2026-05-07 01:19 | 42.91102 | -114.23687 | 30955 ft | 490 kts | 111° |
| 2026-05-07 01:19 | 42.89652 | -114.19471 | 31234 ft | 492 kts | 111° |
| 2026-05-07 01:20 | 42.88195 | -114.15245 | 31455 ft | 494 kts | 111° |
| 2026-05-07 01:20 | 42.86730 | -114.11000 | 31669 ft | 496 kts | 111° |
| 2026-05-07 01:20 | 42.85261 | -114.06744 | 32001 ft | 495 kts | 111° |
| 2026-05-07 01:20 | 42.83798 | -114.02515 | 32344 ft | 494 kts | 111° |
| 2026-05-07 01:21 | 42.82334 | -113.98288 | 32684 ft | 492 kts | 111° |
| 2026-05-07 01:21 | 42.80872 | -113.94074 | 32998 ft | 492 kts | 111° |
| 2026-05-07 01:21 | 42.79409 | -113.89864 | 33263 ft | 492 kts | 111° |
| 2026-05-07 01:21 | 42.77962 | -113.85706 | 33551 ft | 492 kts | 111° |
| 2026-05-07 01:22 | 42.76496 | -113.81502 | 33826 ft | 491 kts | 111° |
| 2026-05-07 01:22 | 42.75030 | -113.77302 | 34089 ft | 491 kts | 111° |
| 2026-05-07 01:22 | 42.73564 | -113.73110 | 34364 ft | 490 kts | 111° |
| 2026-05-07 01:22 | 42.72101 | -113.68929 | 34619 ft | 490 kts | 111° |
| 2026-05-07 01:23 | 42.70632 | -113.64740 | 34819 ft | 491 kts | 111° |
| 2026-05-07 01:23 | 42.69165 | -113.60560 | 35054 ft | 491 kts | 111° |
| 2026-05-07 01:23 | 42.67691 | -113.56371 | 35319 ft | 490 kts | 111° |
| 2026-05-07 01:23 | 42.66223 | -113.52205 | 35541 ft | 490 kts | 111° |
| 2026-05-07 01:24 | 42.64750 | -113.48031 | 35748 ft | 490 kts | 111° |
| 2026-05-07 01:24 | 42.63297 | -113.43916 | 35962 ft | 490 kts | 112° |
| 2026-05-07 01:24 | 42.61821 | -113.39746 | 36171 ft | 490 kts | 112° |
| 2026-05-07 01:24 | 42.60345 | -113.35578 | 36423 ft | 489 kts | 112° |
| 2026-05-07 01:25 | 42.58872 | -113.31424 | 36660 ft | 488 kts | 112° |
| 2026-05-07 01:25 | 42.57394 | -113.27269 | 36874 ft | 487 kts | 112° |
| 2026-05-07 01:25 | 42.55924 | -113.23143 | 37119 ft | 486 kts | 112° |
| 2026-05-07 01:26 | 42.52990 | -113.14921 | 37105 ft | 486 kts | 112° |
| 2026-05-07 01:26 | 42.50059 | -113.06739 | 37085 ft | 479 kts | 112° |
| 2026-05-07 01:27 | 42.47153 | -112.98638 | 37100 ft | 477 kts | 112° |
| 2026-05-07 01:27 | 42.44252 | -112.90576 | 37103 ft | 476 kts | 112° |
| 2026-05-07 01:28 | 42.41351 | -112.82536 | 37095 ft | 475 kts | 112° |
| 2026-05-07 01:28 | 42.38467 | -112.74564 | 37100 ft | 475 kts | 112° |
| 2026-05-07 01:29 | 42.35551 | -112.66530 | 37103 ft | 476 kts | 112° |
| 2026-05-07 01:29 | 42.32623 | -112.58486 | 37100 ft | 477 kts | 111° |
| 2026-05-07 01:30 | 42.29687 | -112.50433 | 37102 ft | 479 kts | 111° |
| 2026-05-07 01:30 | 42.26756 | -112.42430 | 37105 ft | 479 kts | 111° |
| 2026-05-07 01:31 | 42.23795 | -112.34367 | 37116 ft | 480 kts | 111° |
| 2026-05-07 01:31 | 42.20827 | -112.26308 | 37126 ft | 479 kts | 111° |
| 2026-05-07 01:32 | 42.17852 | -112.18253 | 37130 ft | 480 kts | 111° |
| 2026-05-07 01:32 | 42.14891 | -112.10259 | 37128 ft | 480 kts | 111° |
| 2026-05-07 01:33 | 42.11902 | -112.02210 | 37126 ft | 481 kts | 111° |
| 2026-05-07 01:33 | 42.08907 | -111.94167 | 37138 ft | 481 kts | 111° |
| 2026-05-07 01:34 | 42.05905 | -111.86126 | 37135 ft | 481 kts | 111° |
| 2026-05-07 01:34 | 42.02919 | -111.78150 | 37139 ft | 480 kts | 112° |
| 2026-05-07 01:35 | 41.99906 | -111.70128 | 37141 ft | 481 kts | 112° |
| 2026-05-07 01:35 | 41.96891 | -111.62118 | 37137 ft | 480 kts | 112° |
| 2026-05-07 01:36 | 41.93869 | -111.54116 | 37143 ft | 480 kts | 112° |
| 2026-05-07 01:36 | 41.90848 | -111.46142 | 37138 ft | 479 kts | 112° |
| 2026-05-07 01:37 | 41.87827 | -111.38191 | 37139 ft | 477 kts | 112° |
| 2026-05-07 01:37 | 41.84833 | -111.30327 | 37150 ft | 476 kts | 112° |
| 2026-05-07 01:38 | 41.81821 | -111.22435 | 37144 ft | 475 kts | 112° |
| 2026-05-07 01:38 | 41.78812 | -111.14574 | 37158 ft | 474 kts | 112° |
| 2026-05-07 01:39 | 41.75804 | -111.06736 | 37163 ft | 472 kts | 111° |
| 2026-05-07 01:39 | 41.72814 | -110.98972 | 37173 ft | 472 kts | 111° |
| 2026-05-07 01:40 | 41.70309 | -110.92479 | 37188 ft | 472 kts | 111° |
| 2026-05-07 01:40 | 41.67290 | -110.84676 | 37185 ft | 473 kts | 111° |
| 2026-05-07 01:41 | 41.64264 | -110.76869 | 37194 ft | 474 kts | 111° |
| 2026-05-07 01:41 | 41.61223 | -110.69049 | 37182 ft | 474 kts | 112° |
| 2026-05-07 01:42 | 41.57685 | -110.59980 | 37195 ft | 474 kts | 111° |
| 2026-05-07 01:42 | 41.55148 | -110.53494 | 37205 ft | 474 kts | 111° |
| 2026-05-07 01:43 | 41.52090 | -110.45694 | 37211 ft | 474 kts | 112° |
| 2026-05-07 01:43 | 41.49026 | -110.37896 | 37223 ft | 474 kts | 111° |
| 2026-05-07 01:44 | 41.45958 | -110.30110 | 37228 ft | 475 kts | 111° |
| 2026-05-07 01:44 | 41.42901 | -110.22375 | 37225 ft | 475 kts | 112° |
| 2026-05-07 01:45 | 41.39815 | -110.14583 | 37220 ft | 475 kts | 112° |
| 2026-05-07 01:45 | 41.36725 | -110.06804 | 37224 ft | 476 kts | 112° |
| 2026-05-07 01:46 | 41.33623 | -109.99020 | 37215 ft | 476 kts | 112° |
| 2026-05-07 01:46 | 41.30538 | -109.91298 | 37206 ft | 476 kts | 112° |
| 2026-05-07 01:47 | 41.27429 | -109.83536 | 37204 ft | 475 kts | 112° |
| 2026-05-07 01:47 | 41.24318 | -109.75787 | 37203 ft | 475 kts | 112° |
| 2026-05-07 01:48 | 41.21202 | -109.68048 | 37183 ft | 475 kts | 112° |
| 2026-05-07 01:48 | 41.18080 | -109.60315 | 37186 ft | 475 kts | 112° |
| 2026-05-07 01:49 | 41.14965 | -109.52612 | 37197 ft | 473 kts | 112° |
| 2026-05-07 01:49 | 41.11872 | -109.44987 | 37198 ft | 472 kts | 112° |
| 2026-05-07 01:50 | 41.08758 | -109.37332 | 37180 ft | 472 kts | 112° |
| 2026-05-07 01:50 | 41.05645 | -109.29697 | 37187 ft | 471 kts | 112° |
| 2026-05-07 01:51 | 41.02530 | -109.22078 | 37178 ft | 470 kts | 112° |
| 2026-05-07 01:51 | 40.99434 | -109.14521 | 37197 ft | 470 kts | 112° |
| 2026-05-07 01:52 | 40.96315 | -109.06933 | 37176 ft | 470 kts | 112° |
| 2026-05-07 01:52 | 40.93189 | -108.99343 | 37174 ft | 469 kts | 112° |
| 2026-05-07 01:53 | 40.90060 | -108.91761 | 37178 ft | 470 kts | 112° |
| 2026-05-07 01:53 | 40.86942 | -108.84218 | 37173 ft | 471 kts | 112° |
| 2026-05-07 01:54 | 40.83787 | -108.76623 | 37175 ft | 472 kts | 112° |
| 2026-05-07 01:54 | 40.80624 | -108.69023 | 37179 ft | 472 kts | 113° |
| 2026-05-07 01:55 | 40.77455 | -108.61437 | 37175 ft | 473 kts | 113° |
| 2026-05-07 01:55 | 40.74277 | -108.53842 | 37195 ft | 473 kts | 113° |
| 2026-05-07 01:56 | 40.71114 | -108.46294 | 37183 ft | 473 kts | 113° |
| 2026-05-07 01:56 | 40.67929 | -108.38718 | 37198 ft | 473 kts | 113° |
| 2026-05-07 01:57 | 40.64739 | -108.31149 | 37196 ft | 472 kts | 113° |
| 2026-05-07 01:57 | 40.61544 | -108.23588 | 37194 ft | 472 kts | 113° |
| 2026-05-07 01:58 | 40.58370 | -108.16095 | 37201 ft | 472 kts | 113° |
| 2026-05-07 01:58 | 40.55174 | -108.08562 | 37202 ft | 471 kts | 113° |
| 2026-05-07 01:59 | 40.51977 | -108.01053 | 37203 ft | 470 kts | 113° |
| 2026-05-07 01:59 | 40.48785 | -107.93564 | 37196 ft | 470 kts | 114° |
| 2026-05-07 02:00 | 40.45588 | -107.86092 | 37198 ft | 469 kts | 114° |
| 2026-05-07 02:00 | 40.42413 | -107.78689 | 37199 ft | 468 kts | 114° |
| 2026-05-07 02:01 | 40.39220 | -107.71261 | 37202 ft | 467 kts | 114° |
| 2026-05-07 02:01 | 40.36023 | -107.63839 | 37189 ft | 467 kts | 114° |
| 2026-05-07 02:02 | 40.32821 | -107.56427 | 37207 ft | 467 kts | 114° |
| 2026-05-07 02:02 | 40.29634 | -107.49065 | 37198 ft | 468 kts | 114° |
| 2026-05-07 02:03 | 40.26423 | -107.41664 | 37217 ft | 468 kts | 114° |
| 2026-05-07 02:03 | 40.23198 | -107.34252 | 37206 ft | 468 kts | 114° |
| 2026-05-07 02:04 | 40.19967 | -107.26845 | 37207 ft | 469 kts | 114° |
| 2026-05-07 02:04 | 40.16748 | -107.19481 | 37221 ft | 470 kts | 114° |
| 2026-05-07 02:05 | 40.13497 | -107.12060 | 37216 ft | 471 kts | 115° |
| 2026-05-07 02:05 | 40.10231 | -107.04624 | 37222 ft | 472 kts | 115° |
| 2026-05-07 02:06 | 40.06958 | -106.97189 | 37218 ft | 472 kts | 115° |
| 2026-05-07 02:06 | 40.03689 | -106.89780 | 37217 ft | 471 kts | 115° |
| 2026-05-07 02:07 | 40.00445 | -106.82446 | 37223 ft | 470 kts | 115° |
| 2026-05-07 02:07 | 39.95546 | -106.71417 | 37217 ft | 467 kts | 116° |
| 2026-05-07 02:08 | 39.92294 | -106.64111 | 37233 ft | 465 kts | 116° |
| 2026-05-07 02:08 | 39.89042 | -106.56818 | 37244 ft | 466 kts | 117° |
| 2026-05-07 02:09 | 39.85802 | -106.49577 | 37233 ft | 466 kts | 117° |
| 2026-05-07 02:09 | 39.82535 | -106.42287 | 37230 ft | 466 kts | 117° |
| 2026-05-07 02:10 | 39.79264 | -106.35013 | 37225 ft | 465 kts | 117° |
| 2026-05-07 02:10 | 39.75994 | -106.27758 | 37245 ft | 465 kts | 117° |
| 2026-05-07 02:11 | 39.72727 | -106.20518 | 37255 ft | 465 kts | 117° |
| 2026-05-07 02:11 | 39.69469 | -106.13324 | 37245 ft | 466 kts | 117° |
| 2026-05-07 02:12 | 39.66182 | -106.06062 | 37244 ft | 466 kts | 117° |
| 2026-05-07 02:12 | 39.62895 | -105.98817 | 37241 ft | 466 kts | 117° |
| 2026-05-07 02:13 | 39.59593 | -105.91572 | 37255 ft | 467 kts | 118° |
| 2026-05-07 02:13 | 39.56296 | -105.84372 | 37238 ft | 468 kts | 118° |
| 2026-05-07 02:14 | 39.52978 | -105.77121 | 37222 ft | 468 kts | 118° |
| 2026-05-07 02:14 | 39.49660 | -105.69879 | 37222 ft | 468 kts | 118° |
| 2026-05-07 02:15 | 39.46329 | -105.62643 | 37218 ft | 468 kts | 118° |
| 2026-05-07 02:15 | 39.42993 | -105.55399 | 37214 ft | 469 kts | 118° |
| 2026-05-07 02:16 | 39.39665 | -105.48199 | 37217 ft | 470 kts | 119° |
| 2026-05-07 02:16 | 39.36306 | -105.40945 | 37204 ft | 471 kts | 119° |
| 2026-05-07 02:17 | 39.32932 | -105.33673 | 37192 ft | 473 kts | 120° |
| 2026-05-07 02:17 | 39.29541 | -105.26384 | 37177 ft | 474 kts | 120° |
| 2026-05-07 02:18 | 39.26166 | -105.19137 | 37195 ft | 475 kts | 120° |
| 2026-05-07 02:18 | 39.22756 | -105.11830 | 37178 ft | 475 kts | 120° |
| 2026-05-07 02:19 | 39.19335 | -105.04533 | 37177 ft | 476 kts | 121° |
| 2026-05-07 02:19 | 39.15904 | -104.97224 | 37164 ft | 477 kts | 121° |
| 2026-05-07 02:20 | 39.12467 | -104.89922 | 37160 ft | 477 kts | 121° |
| 2026-05-07 02:20 | 39.09050 | -104.82673 | 37157 ft | 477 kts | 121° |
| 2026-05-07 02:21 | 39.05591 | -104.75359 | 37156 ft | 478 kts | 121° |
| 2026-05-07 02:21 | 39.02127 | -104.68047 | 37161 ft | 479 kts | 122° |
| 2026-05-07 02:22 | 38.98658 | -104.60740 | 37162 ft | 478 kts | 122° |